Time;durP1;ratioP1;P1;durP2;ratioP2;P2;SDS_P1;SDS_P2;PMS_P1;PMS_P2;Temp;Humidity;BMP_temperature;BMP_pressure;BME280_temperature;BME280_humidity;BME280_pressure;Samples;Min_cycle;Max_cycle;Signal;HPM_P1;HPM_P2
2022/11/02 00:00:21;;;;;;;8.23;4.80;;;;;;;10.39;100.00;96866.03;5057026;28;20197;-71
2022/11/02 00:02:47;;;;;;;9.03;4.97;;;;;;;10.39;100.00;96863.41;5055906;28;21108;-71
2022/11/02 00:05:14;;;;;;;9.60;5.10;;;;;;;10.40;100.00;96870.31;5056829;28;20235;-71
2022/11/02 00:07:42;;;;;;;8.97;4.73;;;;;;;10.43;100.00;96867.34;5057002;28;20204;-71
2022/11/02 00:10:10;;;;;;;10.07;5.17;;;;;;;10.36;100.00;96868.97;5056490;28;20203;-71
2022/11/02 00:12:36;;;;;;;10.17;4.80;;;;;;;10.24;100.00;96859.72;5055945;28;20611;-71
2022/11/02 00:15:04;;;;;;;12.57;4.43;;;;;;;10.30;100.00;96861.72;5056834;28;20224;-71
2022/11/02 00:17:31;;;;;;;10.40;5.47;;;;;;;10.28;100.00;96861.06;5056536;28;20579;-71
2022/11/02 00:19:58;;;;;;;11.77;4.97;;;;;;;10.30;100.00;96867.00;5056350;28;20575;-71
2022/11/02 00:22:26;;;;;;;10.83;5.60;;;;;;;10.35;100.00;96873.44;5055837;28;20204;-71
2022/11/02 00:24:54;;;;;;;9.20;5.17;;;;;;;10.26;100.00;96873.56;5056674;28;20220;-71
2022/11/02 00:27:22;;;;;;;6.77;3.77;;;;;;;10.15;100.00;96876.47;5056836;28;20209;-71
2022/11/02 00:29:49;;;;;;;9.33;4.47;;;;;;;10.09;100.00;96879.75;5057030;28;20208;-71
2022/11/02 00:32:15;;;;;;;7.17;4.10;;;;;;;10.08;100.00;96885.16;5064020;28;20930;-71
2022/11/02 00:34:42;;;;;;;9.53;4.50;;;;;;;10.17;100.00;96889.50;5056252;28;20207;-71
2022/11/02 00:37:08;;;;;;;8.40;4.60;;;;;;;10.18;100.00;96893.78;5056694;28;20212;-71
2022/11/02 00:39:35;;;;;;;9.20;3.53;;;;;;;10.23;100.00;96902.84;5056931;28;20211;-71
2022/11/02 00:42:03;;;;;;;8.43;3.80;;;;;;;10.29;100.00;96902.22;5063786;28;20197;-71
2022/11/02 00:44:29;;;;;;;6.00;4.00;;;;;;;10.15;100.00;96900.19;5055551;28;20219;-71
2022/11/02 00:46:56;;;;;;;7.97;3.63;;;;;;;10.19;100.00;96911.25;5056803;28;20220;-71
2022/11/02 00:49:22;;;;;;;8.00;4.23;;;;;;;10.15;100.00;96910.72;5062961;28;20204;-71
2022/11/02 00:51:49;;;;;;;11.87;4.63;;;;;;;10.03;100.00;96908.50;5070361;28;20204;-71
2022/11/02 00:54:15;;;;;;;9.37;4.70;;;;;;;9.79;100.00;96911.00;5078287;28;20967;-71
2022/11/02 00:56:42;;;;;;;8.07;4.77;;;;;;;9.90;100.00;96908.94;5061920;28;20574;-71
2022/11/02 00:59:10;;;;;;;9.43;4.70;;;;;;;10.02;100.00;96912.16;5059902;28;20200;-71
2022/11/02 01:01:37;;;;;;;8.57;4.53;;;;;;;9.94;100.00;96907.63;5059973;28;20219;-71
2022/11/02 01:04:04;;;;;;;9.37;4.07;;;;;;;9.95;100.00;96914.56;5059417;28;20199;-71
2022/11/02 01:06:30;;;;;;;10.80;4.50;;;;;;;9.88;100.00;96910.88;5059552;28;20602;-71
2022/11/02 01:08:57;;;;;;;8.27;4.10;;;;;;;10.02;100.00;96912.16;5060104;28;20204;-71
2022/11/02 01:11:24;;;;;;;8.20;4.13;;;;;;;10.02;100.00;96899.81;5059946;28;20967;-71
2022/11/02 01:13:53;;;;;;;8.43;4.57;;;;;;;9.97;100.00;96909.97;5058991;28;20224;-71
2022/11/02 01:16:21;;;;;;;8.53;4.20;;;;;;;9.94;100.00;96915.53;5067296;28;20217;-71
2022/11/02 01:18:51;;;;;;;9.00;4.00;;;;;;;9.95;100.00;96917.19;5059885;28;20232;-71
2022/11/02 01:21:18;;;;;;;10.27;4.43;;;;;;;9.88;100.00;96917.97;5067673;28;20201;-71
2022/11/02 01:23:44;;;;;;;7.90;3.73;;;;;;;9.83;100.00;96917.59;5058930;28;20230;-71
2022/11/02 01:26:11;;;;;;;10.10;4.00;;;;;;;9.79;100.00;96919.72;5059542;28;20571;-71
2022/11/02 01:28:39;;;;;;;7.23;3.73;;;;;;;9.82;100.00;96908.88;5059606;28;20216;-71
2022/11/02 01:31:06;;;;;;;7.30;4.17;;;;;;;9.67;100.00;96909.59;5059783;28;21000;-71
2022/11/02 01:33:34;;;;;;;7.63;4.00;;;;;;;9.64;100.00;96914.38;5058434;28;20716;-71
2022/11/02 01:36:03;;;;;;;8.63;3.63;;;;;;;9.57;100.00;96910.69;5058850;28;20228;-71
2022/11/02 01:38:30;;;;;;;11.47;3.83;;;;;;;9.59;100.00;96914.00;5059023;28;20204;-71
2022/11/02 01:40:57;;;;;;;10.37;3.73;;;;;;;9.49;100.00;96916.72;5067461;28;20577;-71
2022/11/02 01:43:26;;;;;;;7.33;3.83;;;;;;;9.46;100.00;96916.22;5058595;28;20196;-71
2022/11/02 01:45:55;;;;;;;8.17;3.97;;;;;;;9.28;100.00;96924.13;5058679;28;20715;-70
2022/11/02 01:48:30;;;;;;;8.77;4.00;;;;;;;9.31;100.00;96926.44;5059068;28;20204;-71
2022/11/02 01:51:01;;;;;;;8.07;3.83;;;;;;;9.35;100.00;96932.25;5060254;28;20200;-71
2022/11/02 01:53:29;;;;;;;6.43;3.97;;;;;;;9.33;100.00;96931.56;5057422;28;20231;-71
2022/11/02 01:55:56;;;;;;;5.73;3.70;;;;;;;9.27;100.00;96933.00;5058797;28;20666;-71
2022/11/02 01:58:23;;;;;;;4.93;3.03;;;;;;;9.22;100.00;96939.69;5063589;28;20212;-71
2022/11/02 02:00:49;;;;;;;5.30;2.77;;;;;;;9.25;100.00;96944.63;5066495;28;20267;-71
2022/11/02 02:03:20;;;;;;;6.60;3.23;;;;;;;9.22;100.00;96939.69;5057592;28;20201;-71
2022/11/02 02:05:49;;;;;;;5.70;3.27;;;;;;;9.16;100.00;96945.56;5067089;28;20279;-71
2022/11/02 02:08:20;;;;;;;9.13;3.47;;;;;;;9.24;100.00;96949.09;5058626;28;20714;-71
2022/11/02 02:10:46;;;;;;;7.50;3.77;;;;;;;9.18;100.00;96948.88;5058662;28;20205;-71
2022/11/02 02:13:15;;;;;;;6.10;3.47;;;;;;;9.22;100.00;96943.13;5058125;28;20239;-71
2022/11/02 02:15:50;;;;;;;14.47;4.60;;;;;;;9.30;100.00;96931.88;5058768;28;20618;-71
2022/11/02 02:18:23;;;;;;;8.37;4.27;;;;;;;9.27;100.00;96929.56;5058500;28;20208;-71
2022/11/02 02:21:04;;;;;;;8.67;3.83;;;;;;;9.35;100.00;96929.59;5058742;28;20208;-71
2022/11/02 02:24:09;;;;;;;8.50;4.13;;;;;;;9.40;100.00;96937.88;5057621;28;20734;-71
2022/11/02 02:26:55;;;;;;;7.73;3.97;;;;;;;9.32;100.00;96927.28;5058409;28;20231;-70
2022/11/02 02:29:29;;;;;;;11.10;4.27;;;;;;;9.33;100.00;96923.66;5058393;28;20204;-71
2022/11/02 02:31:59;;;;;;;7.57;4.03;;;;;;;9.38;100.00;96924.03;5058416;28;20208;-70
2022/11/02 02:34:32;;;;;;;9.67;4.10;;;;;;;9.36;100.00;96923.38;5065234;28;20608;-71
2022/11/02 02:37:05;;;;;;;7.93;3.47;;;;;;;9.35;100.00;96925.16;5057961;28;20253;-71
2022/11/02 02:39:40;;;;;;;10.50;4.03;;;;;;;9.40;100.00;96916.81;5065936;28;20744;-71
2022/11/02 02:42:13;;;;;;;10.60;4.00;;;;;;;9.38;100.00;96916.16;5057915;28;20215;-71
2022/11/02 02:44:46;;;;;;;8.70;3.47;;;;;;;9.34;100.00;96913.00;5058025;28;20204;-71
2022/11/02 02:47:18;;;;;;;7.73;3.43;;;;;;;9.25;100.00;96908.66;5058145;28;20200;-71
2022/11/02 02:49:53;;;;;;;7.83;3.47;;;;;;;9.27;100.00;96895.38;5057807;28;20211;-71
2022/11/02 02:52:22;;;;;;;7.43;3.77;;;;;;;9.23;100.00;96904.53;5058018;28;20200;-71
2022/11/02 02:54:51;;;;;;;8.27;3.27;;;;;;;9.22;100.00;96900.25;5057614;28;20281;-71
2022/11/02 02:57:23;;;;;;;6.20;3.50;;;;;;;9.23;100.00;96896.66;5057842;28;20204;-72
2022/11/02 02:59:51;;;;;;;6.90;3.77;;;;;;;9.28;100.00;96897.03;5058382;28;20208;-71
2022/11/02 03:02:21;;;;;;;8.40;4.03;;;;;;;9.39;100.00;96887.06;5057747;28;20231;-70
2022/11/02 03:04:47;;;;;;;9.40;4.13;;;;;;;9.34;100.00;96889.34;5058181;28;20204;-71
2022/11/02 03:07:20;;;;;;;9.07;4.00;;;;;;;9.49;100.00;96889.59;5057607;28;20204;-70
2022/11/02 03:09:51;;;;;;;10.03;3.80;;;;;;;9.55;100.00;96887.16;5059618;28;20229;-71
2022/11/02 03:12:32;;;;;;;11.13;3.90;;;;;;;9.58;100.00;96878.16;5057088;28;20209;-71
2022/11/02 03:15:10;;;;;;;10.07;3.73;;;;;;;9.66;100.00;96879.03;5056152;28;20224;-71
2022/11/02 03:17:45;;;;;;;9.70;3.80;;;;;;;9.60;100.00;96877.00;5057661;28;20990;-71
2022/11/02 03:20:22;;;;;;;7.83;3.83;;;;;;;9.65;100.00;96884.41;5057661;28;20209;-71
2022/11/02 03:22:55;;;;;;;8.73;3.47;;;;;;;9.59;100.00;96892.97;5054678;28;20243;-72
2022/11/02 03:25:28;;;;;;;10.87;4.00;;;;;;;9.54;100.00;96887.34;5062049;28;20221;-71
2022/11/02 03:28:01;;;;;;;5.83;3.20;;;;;;;9.54;100.00;96887.34;5057271;28;20207;-71
2022/11/02 03:30:35;;;;;;;8.37;3.30;;;;;;;9.63;100.00;96883.78;5057077;28;20294;-72
2022/11/02 03:33:07;;;;;;;6.43;3.27;;;;;;;9.63;100.00;96886.41;5056567;28;20287;-71
2022/11/02 03:35:38;;;;;;;8.60;3.00;;;;;;;9.57;100.00;96887.00;5057196;28;20232;-71
2022/11/02 03:38:11;;;;;;;6.60;3.60;;;;;;;9.57;100.00;96887.84;5059109;28;21161;-70
2022/11/02 03:40:42;;;;;;;5.63;3.23;;;;;;;9.61;100.00;96890.97;5057415;28;20208;-71
2022/11/02 03:43:10;;;;;;;6.57;3.43;;;;;;;9.45;100.00;96898.78;5056681;28;20205;-71
2022/11/02 03:45:42;;;;;;;5.40;3.43;;;;;;;9.57;100.00;96893.13;5057173;28;21043;-71
2022/11/02 03:48:12;;;;;;;6.60;3.30;;;;;;;9.60;100.00;96895.44;5057060;28;20210;-70
2022/11/02 03:50:44;;;;;;;6.83;3.30;;;;;;;9.69;100.00;96894.50;5064642;28;20206;-70
2022/11/02 03:53:15;;;;;;;8.50;3.10;;;;;;;9.68;100.00;96896.28;5056543;28;20208;-70
2022/11/02 03:55:47;;;;;;;7.53;3.53;;;;;;;9.70;100.00;96898.78;5057038;28;20223;-70
2022/11/02 03:58:14;;;;;;;8.27;3.80;;;;;;;9.55;100.00;96905.59;5057338;28;20909;-70
2022/11/02 04:00:49;;;;;;;6.50;3.40;;;;;;;9.65;100.00;96894.94;5057112;28;20215;-70
2022/11/02 04:03:18;;;;;;;7.17;3.70;;;;;;;9.62;100.00;96897.91;5055931;28;20318;-71
2022/11/02 04:05:44;;;;;;;10.23;3.70;;;;;;;9.55;100.00;96904.78;5057194;28;20224;-70
2022/11/02 04:08:20;;;;;;;8.33;3.70;;;;;;;9.60;100.00;96902.47;5057657;28;20210;-70
2022/11/02 04:16:17;;;;;;;6.80;3.20;;;;;;;9.19;100.00;96911.09;5057736;28;20231;-70
2022/11/02 04:21:28;;;;;;;10.10;3.33;;;;;;;8.96;100.00;96933.56;5056864;28;20215;-70
2022/11/02 04:26:39;;;;;;;6.37;3.43;;;;;;;9.01;100.00;96931.28;5058420;28;20281;-71
2022/11/02 04:29:06;;;;;;;5.87;3.10;;;;;;;9.02;100.00;96932.94;5065490;28;20230;-71
2022/11/02 04:31:34;;;;;;;8.53;3.73;;;;;;;8.91;100.00;96930.56;5063614;28;20724;-70
2022/11/02 04:34:00;;;;;;;9.50;3.47;;;;;;;8.87;100.00;96947.59;5059739;28;20248;-71
2022/11/02 04:36:29;;;;;;;8.60;3.33;;;;;;;8.99;100.00;96949.03;5060107;28;20339;-70
2022/11/02 04:38:55;;;;;;;7.77;3.47;;;;;;;8.88;100.00;96938.72;5060585;28;20201;-70
2022/11/02 04:44:08;;;;;;;8.17;4.17;;;;;;;8.92;100.00;96932.19;5059533;28;20257;-71
2022/11/02 04:46:37;;;;;;;8.40;3.87;;;;;;;8.98;100.00;96933.41;5060515;28;20242;-70
2022/11/02 04:49:05;;;;;;;10.63;3.73;;;;;;;8.96;100.00;96944.06;5060302;28;20193;-70
2022/11/02 04:51:32;;;;;;;9.63;3.93;;;;;;;8.94;100.00;96932.88;5059859;28;21000;-70
2022/11/02 04:53:59;;;;;;;7.80;3.47;;;;;;;8.89;100.00;96935.13;5059401;28;20216;-70
2022/11/02 04:56:26;;;;;;;6.67;3.67;;;;;;;8.98;100.00;96936.84;5060518;28;20226;-71
2022/11/02 04:58:55;;;;;;;8.50;3.70;;;;;;;8.96;100.00;96938.81;5060045;28;20200;-69
2022/11/02 05:01:23;;;;;;;5.80;3.07;;;;;;;8.94;100.00;96940.75;5060216;28;20205;-71
2022/11/02 05:03:52;;;;;;;7.40;3.40;;;;;;;8.88;100.00;96935.28;5059569;28;20204;-70
2022/11/02 05:06:21;;;;;;;7.03;3.70;;;;;;;8.86;100.00;96939.84;5060201;28;20679;-70
2022/11/02 05:08:47;;;;;;;7.17;4.00;;;;;;;8.67;100.00;96937.38;5067759;28;20200;-70
2022/11/02 05:11:14;;;;;;;9.77;3.50;;;;;;;8.73;100.00;96931.50;5059890;28;20209;-70
2022/11/02 05:13:43;;;;;;;7.33;3.30;;;;;;;8.75;100.00;96940.88;5066522;28;20230;-70
2022/11/02 05:16:14;;;;;;;12.50;3.30;;;;;;;8.85;100.00;96943.47;5059787;28;20723;-71
2022/11/02 05:18:41;;;;;;;6.10;3.27;;;;;;;8.69;100.00;96938.88;5060504;28;20222;-70
2022/11/02 05:21:11;;;;;;;7.10;2.97;;;;;;;8.74;100.00;96944.47;5060001;28;20281;-70
2022/11/02 05:23:38;;;;;;;8.57;3.30;;;;;;;8.66;100.00;96951.47;5058957;28;20201;-70
2022/11/02 05:26:06;;;;;;;9.13;3.40;;;;;;;8.59;100.00;96953.88;5059744;28;20224;-70
2022/11/02 05:28:33;;;;;;;8.63;3.73;;;;;;;8.51;100.00;96956.41;5059820;28;20208;-71
2022/11/02 05:31:01;;;;;;;7.83;4.13;;;;;;;8.57;100.00;96949.72;5059731;28;20737;-70
2022/11/02 05:33:29;;;;;;;10.07;4.53;;;;;;;8.49;100.00;96949.66;5059043;28;20200;-70
2022/11/02 05:35:56;;;;;;;7.90;4.00;;;;;;;8.47;100.00;96958.66;5059365;28;20228;-70
2022/11/02 05:38:24;;;;;;;6.37;3.97;;;;;;;8.51;100.00;96953.78;5058511;28;20204;-70
2022/11/02 05:40:53;;;;;;;8.23;3.83;;;;;;;8.57;100.00;96955.00;5059136;28;21235;-71
2022/11/02 05:43:20;;;;;;;7.53;3.80;;;;;;;8.42;100.00;96955.63;5059083;28;20291;-70
2022/11/02 05:45:52;;;;;;;9.13;3.73;;;;;;;8.52;100.00;96957.22;5059028;28;20807;-70
2022/11/02 05:48:19;;;;;;;7.30;3.70;;;;;;;8.37;100.00;96955.25;5059520;28;20231;-70
2022/11/02 05:50:46;;;;;;;8.30;3.77;;;;;;;8.38;100.00;96959.53;5059443;28;20204;-70
2022/11/02 05:53:12;;;;;;;5.60;3.10;;;;;;;8.33;100.00;96959.13;5066278;28;20205;-70
2022/11/02 05:55:40;;;;;;;6.47;3.87;;;;;;;8.34;100.00;96960.75;5058827;28;20234;-70
2022/11/02 05:58:06;;;;;;;5.13;2.50;;;;;;;8.26;100.00;96963.31;5066764;28;20207;-70
2022/11/02 06:00:33;;;;;;;6.03;2.83;;;;;;;8.30;100.00;96964.66;5058991;28;20200;-70
2022/11/02 06:02:59;;;;;;;4.83;2.43;;;;;;;8.21;100.00;96960.28;5058060;28;21010;-70
2022/11/02 06:05:26;;;;;;;3.90;2.70;;;;;;;8.12;100.00;96958.50;5058917;28;20223;-71
2022/11/02 06:07:52;;;;;;;7.90;2.83;;;;;;;8.05;100.00;96960.88;5059127;28;20201;-72
2022/11/02 06:10:19;;;;;;;9.37;3.27;;;;;;;8.07;100.00;96964.19;5058482;28;21209;-70
2022/11/02 06:12:47;;;;;;;7.93;3.47;;;;;;;8.18;100.00;96958.78;5057762;28;20210;-70
2022/11/02 06:15:14;;;;;;;8.70;3.33;;;;;;;8.13;100.00;96968.03;5058789;28;20235;-71
2022/11/02 06:17:41;;;;;;;6.03;3.00;;;;;;;8.17;100.00;96972.88;5058733;28;20676;-70
2022/11/02 06:20:09;;;;;;;13.47;3.37;;;;;;;8.25;100.00;96969.50;5058296;28;20593;-71
2022/11/02 06:22:39;;;;;;;9.67;3.70;;;;;;;8.39;100.00;96967.25;5057865;28;20598;-71
2022/11/02 06:25:06;;;;;;;10.20;3.87;;;;;;;8.37;100.00;96965.75;5058540;28;20712;-71
2022/11/02 06:27:33;;;;;;;7.13;3.80;;;;;;;8.43;100.00;96980.94;5060357;28;20215;-70
2022/11/02 06:30:01;;;;;;;10.30;4.03;;;;;;;8.60;100.00;96976.53;5058862;28;20210;-71
2022/11/02 06:32:28;;;;;;;7.40;3.60;;;;;;;8.49;100.00;96976.72;5065582;28;20196;-71
2022/11/02 06:34:54;;;;;;;9.43;4.30;;;;;;;8.56;100.00;96983.03;5063966;28;20221;-71
2022/11/02 06:37:21;;;;;;;9.07;3.67;;;;;;;8.49;100.00;96984.59;5066924;28;20207;-71
2022/11/02 06:39:48;;;;;;;6.97;3.53;;;;;;;8.59;100.00;96997.69;5058076;28;20208;-71
2022/11/02 06:42:15;;;;;;;18.23;4.97;;;;;;;8.79;100.00;96999.25;5060791;28;20204;-71
2022/11/02 06:44:41;;;;;;;6.50;3.90;;;;;;;8.89;100.00;97000.81;5065539;28;20196;-71
2022/11/02 06:47:09;;;;;;;9.80;4.10;;;;;;;9.03;100.00;97002.94;5066504;28;21027;-71
2022/11/02 06:49:36;;;;;;;7.27;4.10;;;;;;;9.07;100.00;97019.25;5065285;28;20221;-71
2022/11/02 06:52:02;;;;;;;7.63;4.17;;;;;;;9.20;100.00;97025.78;5060282;28;20206;-71
2022/11/02 06:54:29;;;;;;;10.80;3.93;;;;;;;9.34;100.00;97020.84;5056565;28;20712;-71
2022/11/02 06:56:55;;;;;;;8.90;3.53;;;;;;;9.44;100.00;97016.31;5060157;28;20231;-71
2022/11/02 06:59:22;;;;;;;11.33;4.30;;;;;;;9.57;100.00;97023.81;5058538;28;20208;-71
2022/11/02 07:01:52;;;;;;;9.60;4.30;;;;;;;9.67;100.00;97025.38;5060387;28;20196;-71
2022/11/02 07:04:20;;;;;;;7.87;4.17;;;;;;;9.85;100.00;97023.56;5056936;28;20207;-71
2022/11/02 07:06:47;;;;;;;7.43;3.37;;;;;;;10.26;100.00;97017.59;5057425;28;20220;-71
2022/11/02 07:09:13;;;;;;;8.00;3.47;;;;;;;10.70;100.00;97022.59;5061239;28;20204;-71
2022/11/02 07:11:40;;;;;;;11.90;5.70;;;;;;;10.82;100.00;97021.31;5064079;28;20212;-71
2022/11/02 07:14:07;;;;;;;23.10;5.13;;;;;;;10.90;100.00;97024.81;5059270;28;20696;-71
2022/11/02 07:16:33;;;;;;;13.80;4.90;;;;;;;10.87;100.00;97024.31;5065357;28;20228;-71
2022/11/02 07:19:00;;;;;;;14.77;5.60;;;;;;;10.81;100.00;97030.25;5059279;28;20220;-71
2022/11/02 07:21:28;;;;;;;15.57;5.20;;;;;;;10.91;100.00;97030.91;5066572;28;20219;-71
2022/11/02 07:23:54;;;;;;;15.03;5.07;;;;;;;10.85;100.00;97031.56;5056550;28;20855;-71
2022/11/02 07:26:21;;;;;;;9.80;4.17;;;;;;;10.88;100.00;97041.78;5061697;28;20228;-71
2022/11/02 07:28:48;;;;;;;10.37;4.70;;;;;;;10.84;100.00;97051.81;5066583;28;21137;-71
2022/11/02 07:31:14;;;;;;;7.87;4.17;;;;;;;10.53;100.00;97052.50;5070776;28;20211;-71
2022/11/02 07:33:41;;;;;;;16.03;4.57;;;;;;;10.65;100.00;97053.88;5068744;28;20661;-71
2022/11/02 07:36:07;;;;;;;11.97;4.73;;;;;;;10.75;100.00;97063.31;5059014;28;20239;-71
2022/11/02 07:38:35;;;;;;;8.50;4.30;;;;;;;10.86;100.00;97056.94;5058673;28;20200;-71
2022/11/02 07:41:02;;;;;;;7.20;4.10;;;;;;;10.80;100.00;97060.22;5063458;28;20209;-71
2022/11/02 07:43:29;;;;;;;7.97;4.53;;;;;;;10.85;100.00;97057.94;5059617;28;21234;-71
2022/11/02 07:45:56;;;;;;;7.73;4.30;;;;;;;10.92;100.00;97058.94;5057545;28;20213;-71
2022/11/02 07:48:22;;;;;;;11.97;4.40;;;;;;;10.94;100.00;97063.88;5056885;28;20200;-71
2022/11/02 07:50:49;;;;;;;9.47;4.93;;;;;;;10.95;100.00;97068.19;5067259;28;20211;-71
2022/11/02 07:53:15;;;;;;;12.40;5.60;;;;;;;11.02;100.00;97073.66;5062288;28;20200;-71
2022/11/02 07:55:43;;;;;;;10.63;5.03;;;;;;;11.03;100.00;97078.75;5064991;28;20248;-68
2022/11/02 07:58:13;;;;;;;9.60;4.27;;;;;;;11.09;100.00;97072.84;5062935;28;20527;-71
2022/11/02 08:00:41;;;;;;;11.07;4.10;;;;;;;11.00;100.00;97079.09;5063000;28;20200;-71
2022/11/02 08:03:10;;;;;;;12.70;3.97;;;;;;;11.08;100.00;97080.94;5063546;28;20577;-68
2022/11/02 08:05:38;;;;;;;14.43;4.40;;;;;;;10.97;100.00;97076.78;5061616;28;20212;-70
2022/11/02 08:08:06;;;;;;;8.07;4.07;;;;;;;10.99;100.00;97081.88;5058685;28;21007;-71
2022/11/02 08:10:34;;;;;;;8.00;3.67;;;;;;;11.20;100.00;97077.84;5063276;28;20478;-71
2022/11/02 08:13:02;;;;;;;12.27;3.40;;;;;;;11.23;100.00;97080.16;5062403;28;20197;-71
2022/11/02 08:15:29;;;;;;;8.17;3.80;;;;;;;11.18;100.00;97074.53;5062177;28;20228;-71
2022/11/02 08:18:03;;;;;;;11.20;4.43;;;;;;;11.33;100.00;97074.72;5056247;28;20207;-71
2022/11/02 08:20:29;;;;;;;6.07;3.70;;;;;;;11.29;100.00;97079.53;5067513;28;20211;-71
2022/11/02 08:22:56;;;;;;;18.80;4.63;;;;;;;11.45;100.00;97076.09;5066106;28;20207;-71
2022/11/02 08:25:24;;;;;;;9.13;3.87;;;;;;;11.50;100.00;97081.75;5064384;28;20242;-68
2022/11/02 08:27:50;;;;;;;12.33;4.93;;;;;;;11.57;100.00;97080.94;5065797;28;20211;-68
2022/11/02 08:30:18;;;;;;;14.57;4.60;;;;;;;11.70;100.00;97086.56;5061479;28;20201;-69
2022/11/02 08:32:45;;;;;;;7.40;3.80;;;;;;;11.65;100.00;97075.66;5064323;28;20219;-70
2022/11/02 08:35:12;;;;;;;7.97;3.37;;;;;;;11.69;100.00;97074.34;5067820;28;20235;-69
2022/11/02 08:37:38;;;;;;;7.13;4.00;;;;;;;11.76;100.00;97085.88;5065029;28;20955;-71
2022/11/02 08:40:06;;;;;;;12.53;4.70;;;;;;;11.78;100.00;97082.09;5059663;28;20227;-72
2022/11/02 08:42:32;;;;;;;9.07;4.70;;;;;;;11.92;100.00;97083.28;5055456;28;20210;-71
2022/11/02 08:44:59;;;;;;;7.50;4.63;;;;;;;11.91;100.00;97087.72;5056804;28;20196;-72
2022/11/02 08:47:27;;;;;;;8.53;4.30;;;;;;;11.91;100.00;97082.44;5055936;28;20204;-71
2022/11/02 08:49:53;;;;;;;7.13;3.53;;;;;;;11.83;100.00;97095.63;5056052;28;20957;-71
2022/11/02 08:52:20;;;;;;;8.50;4.33;;;;;;;11.91;100.00;97092.19;5060153;28;20213;-72
2022/11/02 08:54:46;;;;;;;13.03;4.93;;;;;;;12.06;100.00;97093.19;5055356;28;20923;-72
2022/11/02 08:57:13;;;;;;;12.97;3.20;;;;;;;11.90;100.00;97099.28;5059306;28;20208;-72
2022/11/02 08:59:39;;;;;;;7.53;3.07;;;;;;;11.88;100.00;97097.81;5058265;28;20200;-72
2022/11/02 09:02:06;;;;;;;9.87;2.83;;;;;;;11.99;100.00;97100.09;5056805;28;20302;-72
2022/11/02 09:04:34;;;;;;;15.80;2.70;;;;;;;12.03;100.00;97107.53;5055934;28;20250;-72
2022/11/02 09:07:00;;;;;;;6.07;3.07;;;;;;;12.19;100.00;97108.38;5062345;28;20727;-71
2022/11/02 09:09:27;;;;;;;6.10;2.63;;;;;;;12.32;100.00;97098.13;5056233;28;20204;-72
2022/11/02 09:11:53;;;;;;;8.00;2.90;;;;;;;12.38;100.00;97100.06;5061798;28;20204;-72
2022/11/02 09:14:20;;;;;;;5.80;2.67;;;;;;;12.51;100.00;97102.22;5065334;28;20762;-72
2022/11/02 09:16:47;;;;;;;10.77;2.37;;;;;;;12.53;100.00;97105.53;5066299;28;20215;-70
2022/11/02 09:19:13;;;;;;;4.60;2.60;;;;;;;12.63;100.00;97100.88;5066419;28;20576;-70
2022/11/02 09:21:41;;;;;;;8.10;2.67;;;;;;;12.71;100.00;97099.03;5061872;28;20207;-71
2022/11/02 09:24:08;;;;;;;5.30;2.57;;;;;;;12.76;100.00;97095.88;5070959;28;20204;-71
2022/11/02 09:26:35;;;;;;;11.57;2.63;;;;;;;12.78;100.00;97100.84;5059739;28;20216;-72
2022/11/02 09:29:01;;;;;;;9.17;2.77;;;;;;;12.86;100.00;97097.38;5068798;28;20200;-72
2022/11/02 09:31:29;;;;;;;8.87;3.07;;;;;;;12.86;100.00;97087.59;5066851;28;20679;-71
2022/11/02 09:33:55;;;;;;;7.70;2.60;;;;;;;12.95;100.00;97091.06;5064340;28;20205;-71
2022/11/02 09:36:22;;;;;;;4.80;2.20;;;;;;;13.00;100.00;97088.72;5068762;28;20606;-70
2022/11/02 09:38:50;;;;;;;10.65;2.50;;;;;;;13.14;100.00;97088.00;5068939;28;20206;-72
2022/11/02 09:41:23;;;;;;;5.15;2.50;;;;;;;13.24;100.00;97091.25;5066957;28;20208;-71
2022/11/02 09:44:00;;;;;;;8.10;2.30;;;;;;;13.31;100.00;97093.03;5069392;28;20203;-72
2022/11/02 09:46:32;;;;;;;10.23;2.50;;;;;;;13.50;100.00;97097.91;5063536;28;20708;-71
2022/11/02 09:49:02;;;;;;;7.05;2.30;;;;;;;13.48;100.00;97090.16;5063396;28;20201;-71
2022/11/02 09:51:34;;;;;;;3.17;1.90;;;;;;;13.64;100.00;97087.38;5065809;28;20210;-70
2022/11/02 09:54:08;;;;;;;5.88;2.17;;;;;;;13.73;100.00;97091.63;5063871;28;20204;-71
2022/11/02 09:56:35;;;;;;;8.93;2.63;;;;;;;13.76;100.00;97093.94;5065456;28;20879;-72
2022/11/02 09:59:05;;;;;;;7.93;2.17;;;;;;;13.80;100.00;97100.53;5060442;28;20725;-71
2022/11/02 10:01:42;;;;;;;8.43;2.33;;;;;;;13.89;100.00;97098.69;5064094;28;20449;-71
2022/11/02 10:04:47;;;;;;;5.15;2.20;;;;;;;13.92;100.00;97109.72;5067547;28;20210;-71
2022/11/02 10:07:22;;;;;;;4.50;1.70;;;;;;;13.98;100.00;97114.31;5068140;28;20204;-72
2022/11/02 10:09:54;;;;;;;9.00;1.95;;;;;;;13.95;100.00;97106.75;5065321;28;20218;-72
2022/11/02 10:12:26;;;;;;;7.47;1.90;;;;;;;13.87;100.00;97105.97;5060757;28;20205;-71
2022/11/02 10:14:59;;;;;;;6.50;1.98;;;;;;;13.83;100.00;97113.44;5066733;28;20208;-72
2022/11/02 10:17:29;;;;;;;11.68;2.33;;;;;;;13.94;100.00;97113.03;5059017;28;20744;-72
2022/11/02 10:19:57;;;;;;;3.47;1.88;;;;;;;13.95;100.00;97112.03;5064993;28;20201;-72
2022/11/02 10:22:27;;;;;;;7.53;1.98;;;;;;;13.98;100.00;97111.69;5056129;28;20215;-72
2022/11/02 10:24:58;;;;;;;7.43;2.03;;;;;;;13.98;100.00;97110.88;5057419;28;20565;-72
2022/11/02 10:27:27;;;;;;;4.55;1.42;;;;;;;13.86;100.00;97110.44;5062980;28;20220;-72
2022/11/02 10:29:57;;;;;;;3.92;1.70;;;;;;;14.03;100.00;97106.69;5060565;28;20208;-72
2022/11/02 10:32:24;;;;;;;15.70;1.90;;;;;;;14.17;100.00;97108.59;5057725;28;20668;-71
2022/11/02 10:34:52;;;;;;;6.03;2.22;;;;;;;14.25;100.00;97109.31;5068342;28;20204;-72
2022/11/02 10:37:34;;;;;;;3.90;1.77;;;;;;;14.34;100.00;97102.94;5066791;28;20208;-72
2022/11/02 10:40:15;;;;;;;8.27;1.63;;;;;;;14.56;100.00;97109.22;5066147;28;20222;-71
2022/11/02 10:42:59;;;;;;;4.57;1.58;;;;;;;14.70;100.00;97102.13;5065121;28;20558;-70
2022/11/02 10:45:58;;;;;;;6.28;1.73;;;;;;;15.04;100.00;97098.94;5067333;28;20311;-71
2022/11/02 10:48:33;;;;;;;5.95;2.08;;;;;;;15.24;100.00;97105.38;5065578;28;20668;-71
2022/11/02 10:51:08;;;;;;;9.63;2.22;;;;;;;15.28;99.91;97102.16;5066726;28;20552;-70
2022/11/02 10:53:36;;;;;;;9.60;3.08;;;;;;;15.39;98.55;97107.00;5063081;28;20200;-71
2022/11/02 10:56:10;;;;;;;8.43;3.13;;;;;;;15.45;96.13;97095.63;5067389;28;20703;-71
2022/11/02 10:58:40;;;;;;;2.83;1.30;;;;;;;15.36;94.04;97094.06;5064619;28;20201;-70
2022/11/02 11:01:09;;;;;;;8.38;1.98;;;;;;;15.30;97.11;97100.16;5066675;28;20390;-71
2022/11/02 11:03:53;;;;;;;5.85;1.83;;;;;;;15.66;95.10;97090.38;5063786;28;20200;-71
2022/11/02 11:06:20;;;;;;;4.78;1.88;;;;;;;15.54;93.46;97084.72;5063745;28;20235;-72
2022/11/02 11:08:50;;;;;;;9.05;2.58;;;;;;;15.64;95.07;97076.44;5060400;28;21143;-71
2022/11/02 11:11:24;;;;;;;7.35;1.67;;;;;;;15.76;92.83;97073.09;5064352;28;20199;-72
2022/11/02 11:13:58;;;;;;;7.90;2.25;;;;;;;15.84;93.84;97072.16;5065594;28;20200;-70
2022/11/02 11:16:34;;;;;;;9.32;2.40;;;;;;;15.83;91.22;97071.31;5062917;28;20243;-71
2022/11/02 11:19:01;;;;;;;21.23;8.35;;;;;;;16.01;92.56;97069.03;5064740;28;20199;-70
2022/11/02 11:21:36;;;;;;;11.60;3.97;;;;;;;15.92;90.38;97079.00;5063800;28;20208;-69
2022/11/02 11:24:23;;;;;;;9.52;1.90;;;;;;;15.83;89.86;97075.81;5056491;28;20207;-72
2022/11/02 11:27:13;;;;;;;6.38;1.65;;;;;;;15.80;91.22;97074.38;5057465;28;21338;-70
2022/11/02 11:29:45;;;;;;;3.50;1.45;;;;;;;15.48;89.75;97068.69;5057655;28;20668;-71
2022/11/02 11:32:15;;;;;;;6.40;2.40;;;;;;;15.62;90.68;97065.19;5057186;28;20200;-71
2022/11/02 11:34:45;;;;;;;9.13;2.50;;;;;;;15.53;91.41;97068.94;5057065;28;20226;-72
2022/11/02 11:37:15;;;;;;;6.07;2.20;;;;;;;15.38;91.24;97060.19;5056445;28;20220;-71
2022/11/02 11:39:45;;;;;;;10.05;2.30;;;;;;;15.52;90.60;97064.66;5057442;28;20205;-71
2022/11/02 11:42:19;;;;;;;4.40;1.98;;;;;;;15.39;90.00;97064.50;5057161;28;20635;-71
2022/11/02 11:44:50;;;;;;;3.70;1.33;;;;;;;15.21;89.93;97068.53;5057370;28;20204;-72
2022/11/02 11:47:25;;;;;;;3.95;1.83;;;;;;;15.38;88.45;97061.00;5057449;28;21073;-71
2022/11/02 11:49:52;;;;;;;8.20;1.63;;;;;;;15.40;89.02;97063.47;5056710;28;20739;-70
2022/11/02 11:52:23;;;;;;;8.13;1.80;;;;;;;15.29;89.71;97059.47;5058728;28;20209;-72